createdAt,value
2023-01-02T00:02:14.713Z,135.22
2023-01-02T00:05:21.081Z,147.74
2023-01-02T00:08:30.685Z,166.56
2023-01-02T00:11:37.936Z,171.31
2023-01-02T00:14:44.932Z,160.53
2023-01-02T00:17:51.026Z,165.32
2023-01-02T00:20:58.399Z,162.45
2023-01-02T00:24:07.897Z,155.49
2023-01-02T00:27:14.776Z,148.59
2023-01-02T00:30:21.160Z,150.22
2023-01-02T00:33:28.227Z,144.60
2023-01-02T00:36:34.401Z,140.11
2023-01-02T00:39:44.009Z,139.42
2023-01-02T00:42:50.164Z,128.26
2023-01-02T00:45:57.341Z,129.03
2023-01-02T00:49:03.459Z,124.73
2023-01-02T00:52:10.467Z,122.82
2023-01-02T00:55:19.348Z,121.20
2023-01-02T00:58:26.435Z,118.70
2023-01-02T01:01:32.928Z,120.51
2023-01-02T01:04:41.164Z,125.69
2023-01-02T01:07:47.225Z,122.74
2023-01-02T01:10:56.708Z,124.22
2023-01-02T01:14:02.821Z,129.74
2023-01-02T01:17:10.205Z,134.73
2023-01-02T01:20:16.366Z,138.59
2023-01-02T01:23:25.013Z,146.29
2023-01-02T01:26:33.731Z,151.96
2023-01-02T01:29:40.685Z,152.12
2023-01-02T01:32:46.832Z,149.58
2023-01-02T01:35:53.662Z,135.83
2023-01-02T01:38:59.785Z,132.55
2023-01-02T01:42:09.426Z,131.81
2023-01-02T01:45:19.722Z,133.27
2023-01-02T01:48:27.316Z,134.61
2023-01-02T01:51:40.047Z,130.10
2023-01-02T01:54:54.860Z,131.72
2023-01-02T01:58:09.903Z,146.32
2023-01-02T02:01:20.954Z,141.20
2023-01-02T02:04:30.084Z,148.00
2023-01-02T02:07:45.701Z,180.19
2023-01-02T02:10:53.394Z,175.26
2023-01-02T02:14:04.665Z,173.43
2023-01-02T02:17:26.474Z,192.66
2023-01-02T02:20:49.221Z,199.94
2023-01-02T02:24:32.250Z,177.53
2023-01-02T02:28:16.175Z,164.72
2023-01-02T02:31:42.966Z,193.14
2023-01-02T02:35:05.746Z,190.60
2023-01-02T02:38:24.980Z,175.53
2023-01-02T02:41:42.127Z,170.25
2023-01-02T02:45:05.485Z,167.46
2023-01-02T02:48:26.485Z,160.60
2023-01-02T02:51:45.427Z,151.51
2023-01-02T02:55:04.423Z,139.82
2023-01-02T02:58:12.242Z,146.19
2023-01-02T03:01:26.800Z,149.12
2023-01-02T03:04:38.854Z,141.53
2023-01-02T03:08:05.088Z,169.90
2023-01-02T03:11:12.948Z,191.07
2023-01-02T03:14:33.772Z,213.15
2023-01-02T03:18:06.354Z,212.48
2023-01-02T03:21:31.205Z,205.50
2023-01-02T03:24:44.062Z,174.43
2023-01-02T03:27:55.931Z,189.20
2023-01-02T03:31:06.800Z,194.01
2023-01-02T03:34:19.143Z,204.08
2023-01-02T03:37:36.479Z,203.47
2023-01-02T03:40:52.000Z,185.69
2023-01-02T03:44:03.681Z,213.54
2023-01-02T03:47:31.449Z,234.07
2023-01-02T03:50:50.109Z,250.98
2023-01-02T03:54:03.215Z,281.49
2023-01-02T03:57:25.245Z,280.68
2023-01-02T04:00:44.569Z,290.46
2023-01-02T04:04:01.123Z,310.17
2023-01-02T04:07:16.468Z,302.73
2023-01-02T04:10:27.874Z,308.33
2023-01-02T04:13:45.461Z,325.96
2023-01-02T04:16:55.678Z,293.71
2023-01-02T04:20:10.043Z,266.86
2023-01-02T04:23:22.616Z,263.66
2023-01-02T04:26:41.771Z,265.15
2023-01-02T04:29:47.964Z,259.21
2023-01-02T04:32:57.419Z,259.16
2023-01-02T04:36:12.225Z,241.03
2023-01-02T04:39:20.011Z,200.03
2023-01-02T04:42:30.032Z,163.50
2023-01-02T04:45:36.992Z,150.23
2023-01-02T04:48:43.053Z,175.71
2023-01-02T04:51:49.961Z,184.81
2023-01-02T04:54:56.021Z,176.16
2023-01-02T04:58:05.649Z,202.05
2023-01-02T05:01:13.224Z,520.00
2023-01-02T05:04:20.275Z,523.66
2023-01-02T05:07:26.391Z,301.48
2023-01-02T05:10:33.430Z,262.13
2023-01-02T05:13:42.623Z,244.14
2023-01-02T05:16:49.704Z,225.54
2023-01-02T05:19:56.214Z,201.73
2023-01-02T05:23:15.846Z,196.60
2023-01-02T05:26:22.302Z,201.67
2023-01-02T05:29:32.813Z,210.27
2023-01-02T05:32:39.154Z,224.94
2023-01-02T05:35:46.172Z,240.35
2023-01-02T05:38:52.917Z,338.93
2023-01-02T05:41:59.751Z,352.74
2023-01-02T05:45:10.372Z,351.83
2023-01-02T05:48:18.207Z,368.63
2023-01-02T05:51:24.315Z,331.63
2023-01-02T05:54:31.163Z,329.18
2023-01-02T05:57:38.032Z,350.30
2023-01-02T06:00:47.754Z,362.20
2023-01-02T06:03:57.325Z,356.59
2023-01-02T06:07:04.332Z,372.49
2023-01-02T06:10:12.368Z,380.18
2023-01-02T06:13:19.322Z,334.01
2023-01-02T06:16:29.258Z,313.99
2023-01-02T06:19:36.350Z,332.74
2023-01-02T06:22:42.464Z,350.94
2023-01-02T06:25:50.069Z,415.20
2023-01-02T06:28:59.490Z,642.31
2023-01-02T06:32:09.513Z,1249.51
2023-01-02T06:35:15.676Z,526.39
2023-01-02T06:38:22.747Z,360.19
2023-01-02T06:41:28.981Z,350.49
2023-01-02T06:44:35.871Z,342.54
2023-01-02T06:47:44.740Z,358.87
2023-01-02T06:50:51.808Z,380.16
2023-01-02T06:53:58.117Z,404.32
2023-01-02T06:57:05.068Z,411.48
2023-01-02T07:00:14.022Z,425.14
2023-01-02T07:03:23.541Z,354.75
2023-01-02T07:06:30.733Z,331.81
2023-01-02T07:09:38.391Z,334.52
2023-01-02T07:12:45.091Z,378.37
2023-01-02T07:15:52.110Z,419.24
2023-01-02T07:19:00.840Z,704.32
2023-01-02T07:22:07.837Z,1391.63
2023-01-02T07:25:14.134Z,1237.50
2023-01-02T07:28:21.096Z,1273.36
2023-01-02T07:31:29.473Z,1115.54
2023-01-02T07:34:39.210Z,797.00
2023-01-02T07:37:45.537Z,711.71
2023-01-02T07:40:52.624Z,615.36
2023-01-02T07:43:59.491Z,589.13
2023-01-02T07:47:06.613Z,606.11
2023-01-02T07:50:15.742Z,611.36
2023-01-02T07:53:22.894Z,608.48
2023-01-02T07:56:30.112Z,572.55
2023-01-02T07:59:37.112Z,549.21
2023-01-02T08:02:43.350Z,559.17
2023-01-02T08:05:53.016Z,565.80
2023-01-02T08:08:59.169Z,543.23
2023-01-02T08:12:06.082Z,564.63
2023-01-02T08:15:13.346Z,573.19
2023-01-02T08:18:20.418Z,609.62
2023-01-02T08:21:30.177Z,600.17
2023-01-02T08:24:37.341Z,564.44
2023-01-02T08:27:45.086Z,517.52
2023-01-02T08:30:52.095Z,538.34
2023-01-02T08:33:58.311Z,577.97
2023-01-02T08:37:07.777Z,560.68
2023-01-02T08:40:15.532Z,552.80
2023-01-02T08:43:22.430Z,543.49
2023-01-02T08:46:28.530Z,492.00
2023-01-02T08:49:35.743Z,433.78
2023-01-02T08:52:44.525Z,395.69
2023-01-02T08:55:51.432Z,385.48
2023-01-02T08:59:00.282Z,386.84
2023-01-02T09:02:07.235Z,404.03
2023-01-02T09:05:13.743Z,406.14
2023-01-02T09:08:23.247Z,394.90
2023-01-02T09:11:32.827Z,395.97
2023-01-02T09:14:39.773Z,398.60
2023-01-02T09:17:47.975Z,401.93
2023-01-02T09:34:06.067Z,426.37
2023-01-02T09:37:12.964Z,408.78
2023-01-02T09:40:19.386Z,379.99
2023-01-02T09:43:37.380Z,365.08
2023-01-02T09:46:53.823Z,348.28
2023-01-02T09:50:10.388Z,294.52
2023-01-02T09:53:19.692Z,264.36
2023-01-02T09:56:36.196Z,251.68
2023-01-02T09:59:55.847Z,277.04
2023-01-02T10:03:19.904Z,280.41
2023-01-02T10:06:42.912Z,297.65
2023-01-02T10:10:04.978Z,283.72
2023-01-02T10:13:44.212Z,282.12
2023-01-02T10:16:59.331Z,230.55
2023-01-02T10:20:23.794Z,227.77
2023-01-02T10:23:43.888Z,234.72
2023-01-02T10:26:56.591Z,212.94
2023-01-02T10:30:18.346Z,294.55
2023-01-02T10:33:34.186Z,294.62
2023-01-02T10:36:46.406Z,283.06
2023-01-02T10:39:55.534Z,280.82
2023-01-02T10:43:04.673Z,273.94
2023-01-02T10:46:10.884Z,236.17
2023-01-02T10:49:19.869Z,212.73
2023-01-02T10:52:35.865Z,198.89
2023-01-02T10:55:47.197Z,182.14
2023-01-02T10:58:56.095Z,180.70
2023-01-02T11:02:04.048Z,182.28
2023-01-02T11:05:22.668Z,171.54
2023-01-02T11:08:40.758Z,163.72
2023-01-02T11:11:54.861Z,153.01
2023-01-02T11:15:25.727Z,138.93
2023-01-02T11:18:37.667Z,123.65
2023-01-02T11:21:46.965Z,114.83
2023-01-02T11:25:04.750Z,122.44
2023-01-02T11:28:23.767Z,158.81
2023-01-02T11:31:30.087Z,173.06
2023-01-02T11:34:41.682Z,152.80
2023-01-02T11:37:55.756Z,124.37
2023-01-02T11:41:05.643Z,99.08
2023-01-02T11:44:20.995Z,96.47
2023-01-02T11:47:39.111Z,90.13
2023-01-02T11:50:47.929Z,92.85
2023-01-02T11:53:59.266Z,99.16
2023-01-02T11:57:07.210Z,95.46
2023-01-02T12:00:23.769Z,95.68
2023-01-02T12:03:33.616Z,95.18
2023-01-02T12:07:12.383Z,101.97
2023-01-02T12:10:52.325Z,106.40
2023-01-02T12:14:16.920Z,86.11
2023-01-02T12:17:38.743Z,96.52
2023-01-02T12:21:03.079Z,93.60
2023-01-02T12:25:05.067Z,81.66
2023-01-02T12:28:41.935Z,87.41
2023-01-02T12:32:19.706Z,96.60
2023-01-02T12:35:55.879Z,91.87
2023-01-02T12:39:33.133Z,89.41
2023-01-02T12:43:27.902Z,95.00
2023-01-02T12:47:16.619Z,101.26
2023-01-02T12:50:56.817Z,206.95
2023-01-02T12:54:37.841Z,100.74
2023-01-02T12:57:59.827Z,81.16
2023-01-02T13:01:24.516Z,91.69
2023-01-02T13:04:40.221Z,85.33
2023-01-02T13:07:56.428Z,82.57
2023-01-02T13:11:09.158Z,97.31
2023-01-02T13:14:23.506Z,120.16
2023-01-02T13:17:54.485Z,118.60
2023-01-02T13:21:16.038Z,91.77
2023-01-02T13:24:30.183Z,83.16
2023-01-02T13:27:37.523Z,78.12
2023-01-02T13:31:19.104Z,86.34
2023-01-02T13:34:30.898Z,92.42
2023-01-02T13:37:38.561Z,117.99
2023-01-02T13:40:48.733Z,116.68
2023-01-02T13:44:03.391Z,109.51
2023-01-02T13:47:25.905Z,116.93
2023-01-02T13:50:41.275Z,124.28
2023-01-02T13:53:50.306Z,143.72
2023-01-02T13:57:34.762Z,153.53
2023-01-02T14:00:53.439Z,141.08
2023-01-02T14:04:36.816Z,142.30
2023-01-02T14:07:52.068Z,125.44
2023-01-02T14:11:10.173Z,142.28
2023-01-02T14:14:30.119Z,131.64
2023-01-02T14:17:56.267Z,144.03
2023-01-02T14:21:02.684Z,133.37
2023-01-02T14:24:17.015Z,154.39
2023-01-02T14:27:34.480Z,193.11
2023-01-02T14:30:46.120Z,186.89
2023-01-02T14:33:59.388Z,210.75
2023-01-02T14:37:07.000Z,244.39
2023-01-02T14:40:21.478Z,227.19
2023-01-02T14:43:40.641Z,201.82
2023-01-02T14:46:51.806Z,172.57
2023-01-02T14:50:05.028Z,189.72
2023-01-02T14:53:23.453Z,214.45
2023-01-02T14:56:39.432Z,202.89
2023-01-02T14:59:49.935Z,209.51
2023-01-02T15:03:17.272Z,201.32
2023-01-02T15:06:41.757Z,248.18
2023-01-02T15:09:55.227Z,177.63
2023-01-02T15:13:07.836Z,170.48
2023-01-02T15:16:15.019Z,176.80
2023-01-02T15:19:30.741Z,173.82
2023-01-02T15:22:40.407Z,211.19
2023-01-02T15:25:46.520Z,275.46
2023-01-02T15:28:59.676Z,284.60
2023-01-02T15:32:06.018Z,216.00
2023-01-02T15:35:25.786Z,237.91
2023-01-02T15:38:32.129Z,217.47
2023-01-02T15:41:49.388Z,193.74
2023-01-02T15:45:09.473Z,182.82
2023-01-02T15:48:19.008Z,178.63
2023-01-02T15:51:40.501Z,213.92
2023-01-02T15:54:50.528Z,209.38
2023-01-02T15:57:58.049Z,229.23
2023-01-02T16:01:21.332Z,243.37
2023-01-02T16:04:31.454Z,235.55
2023-01-02T16:07:42.038Z,207.68
2023-01-02T16:10:51.646Z,207.80
2023-01-02T16:14:22.925Z,208.02
2023-01-02T16:17:32.919Z,253.27
2023-01-02T16:20:40.323Z,235.07
2023-01-02T16:23:57.692Z,231.87
2023-01-02T16:27:06.811Z,227.03
2023-01-02T16:30:38.081Z,211.97
2023-01-02T16:33:48.692Z,215.64
2023-01-02T16:37:25.427Z,229.96
2023-01-02T16:41:03.124Z,247.14
2023-01-02T16:44:15.476Z,234.11
2023-01-02T16:47:22.512Z,228.47
2023-01-02T16:50:30.691Z,263.75
2023-01-02T16:53:38.082Z,279.50
2023-01-02T16:56:47.162Z,291.05
2023-01-02T16:59:54.145Z,299.81
2023-01-02T17:03:00.336Z,249.18
2023-01-02T17:06:15.572Z,233.09
2023-01-02T17:09:21.702Z,224.77
2023-01-02T17:12:31.354Z,248.08
2023-01-02T17:15:37.765Z,233.14
2023-01-02T17:18:45.616Z,251.35
2023-01-02T17:21:52.176Z,262.23
2023-01-02T17:24:59.061Z,255.25
2023-01-02T17:28:08.268Z,249.53
2023-01-02T17:31:23.966Z,251.23
2023-01-02T17:34:31.751Z,247.47
2023-01-02T17:37:39.887Z,274.54
2023-01-02T17:40:47.284Z,258.29
2023-01-02T17:44:02.127Z,263.24
2023-01-02T17:47:48.041Z,276.17
2023-01-02T17:50:36.922Z,299.88
2023-01-02T17:53:46.694Z,311.12
2023-01-02T17:56:53.570Z,298.19
2023-01-02T18:00:02.310Z,274.17
2023-01-02T18:03:19.739Z,252.80
2023-01-02T18:06:25.997Z,259.87
2023-01-02T18:09:32.970Z,252.63
2023-01-02T18:12:39.038Z,229.49
2023-01-02T18:15:48.735Z,226.81
2023-01-02T18:18:55.670Z,229.56
2023-01-02T18:22:03.209Z,239.69
2023-01-02T18:25:24.587Z,228.40
2023-01-02T18:28:33.682Z,223.72
2023-01-02T18:31:47.063Z,228.97
2023-01-02T18:34:59.437Z,223.05
2023-01-02T18:38:21.303Z,205.52
2023-01-02T18:41:31.815Z,206.96
2023-01-02T18:44:38.497Z,218.76
2023-01-02T18:47:49.805Z,229.68
2023-01-02T18:51:02.230Z,264.29
2023-01-02T18:54:31.561Z,244.76
2023-01-02T18:57:46.634Z,226.38
2023-01-02T19:00:53.913Z,214.30
2023-01-02T19:04:27.814Z,217.04
2023-01-02T19:07:38.251Z,205.46
2023-01-02T19:10:48.914Z,213.06
2023-01-02T19:13:58.634Z,226.42
2023-01-02T19:17:18.129Z,219.28
2023-01-02T19:20:29.999Z,215.75
2023-01-02T19:23:52.971Z,201.34
2023-01-02T19:27:02.358Z,198.94
2023-01-02T19:30:31.703Z,207.67
2023-01-02T19:33:48.223Z,191.94
2023-01-02T19:37:16.616Z,216.27
2023-01-02T19:40:26.962Z,204.42
2023-01-02T19:43:35.083Z,212.25
2023-01-02T19:46:42.592Z,220.22
2023-01-02T19:49:49.022Z,225.26
2023-01-02T19:52:58.793Z,203.20
2023-01-02T19:56:04.959Z,209.61
2023-01-02T19:59:12.991Z,211.78
2023-01-02T20:02:23.641Z,210.63
2023-01-02T20:05:31.140Z,210.13
2023-01-02T20:08:42.161Z,198.47
2023-01-02T20:12:07.373Z,188.17
2023-01-02T20:15:17.621Z,180.42
2023-01-02T20:18:24.800Z,187.61
2023-01-02T20:21:31.333Z,184.58
2023-01-02T20:24:41.319Z,185.66
2023-01-02T20:27:47.851Z,186.26
2023-01-02T20:30:54.938Z,182.30
2023-01-02T20:34:01.225Z,188.68
2023-01-02T20:37:08.944Z,192.13
2023-01-02T20:40:17.973Z,181.75
2023-01-02T20:43:24.942Z,177.50
2023-01-02T20:46:31.654Z,179.16
2023-01-02T20:49:38.987Z,188.88
2023-01-02T20:52:45.208Z,179.97
2023-01-02T20:55:55.215Z,176.84
2023-01-02T20:59:02.529Z,175.04
2023-01-02T21:02:09.693Z,177.92
2023-01-02T21:05:16.051Z,182.98
2023-01-02T21:08:23.208Z,183.01
2023-01-02T21:11:32.623Z,188.31
2023-01-02T21:14:40.705Z,195.51
2023-01-02T21:17:46.904Z,185.30
2023-01-02T21:20:56.778Z,184.37
2023-01-02T21:24:03.039Z,186.78
2023-01-02T21:27:13.412Z,177.72
2023-01-02T21:30:19.960Z,175.02
2023-01-02T21:33:30.216Z,171.69
2023-01-02T21:36:37.322Z,174.62
2023-01-02T21:39:45.205Z,181.83
2023-01-02T21:42:54.872Z,183.46
2023-01-02T21:46:01.853Z,193.81
2023-01-02T21:49:07.935Z,189.19
2023-01-02T21:52:15.005Z,184.71
2023-01-02T21:55:21.810Z,182.03
2023-01-02T21:58:31.422Z,183.66
2023-01-02T22:01:37.796Z,172.85
2023-01-02T22:04:45.524Z,203.91
2023-01-02T22:07:52.405Z,202.73
2023-01-02T22:11:19.788Z,183.27
2023-01-02T22:14:33.277Z,163.77
2023-01-02T22:17:41.990Z,164.77
2023-01-02T22:20:48.135Z,163.81
2023-01-02T22:23:55.292Z,167.58
2023-01-02T22:27:07.425Z,169.80
2023-01-02T22:30:22.831Z,172.97
2023-01-02T22:33:33.141Z,167.76
2023-01-02T22:36:40.199Z,170.44
2023-01-02T22:39:46.663Z,169.27
2023-01-02T22:43:02.820Z,176.94
2023-01-02T22:46:32.484Z,170.00
2023-01-02T22:49:43.431Z,185.88
2023-01-02T22:52:50.544Z,188.41
2023-01-02T22:55:58.474Z,176.41
2023-01-02T22:59:04.516Z,176.98
2023-01-02T23:02:21.904Z,179.84
2023-01-02T23:05:27.968Z,182.15
2023-01-02T23:08:34.975Z,179.50
2023-01-02T23:11:41.599Z,181.45
2023-01-02T23:14:49.456Z,191.94
2023-01-02T23:18:10.487Z,184.61
2023-01-02T23:21:19.594Z,188.40
2023-01-02T23:24:29.170Z,181.99
2023-01-02T23:27:36.736Z,188.57
2023-01-02T23:30:44.215Z,194.21
2023-01-02T23:33:53.847Z,190.49
2023-01-02T23:37:10.888Z,197.67
2023-01-02T23:40:18.329Z,199.70
2023-01-02T23:43:25.588Z,194.21
2023-01-02T23:46:34.964Z,185.57
2023-01-02T23:49:43.570Z,194.45
2023-01-02T23:52:50.399Z,193.72
2023-01-02T23:55:56.539Z,192.69
2023-01-02T23:59:06.683Z,192.69
